createdAt,value
2019-03-24T00:02:15.070Z,2.97
2019-03-24T00:04:42.230Z,1.17
2019-03-24T00:07:09.935Z,1.73
2019-03-24T00:09:37.098Z,1.47
2019-03-24T00:12:04.031Z,1.97
2019-03-24T00:14:30.758Z,1.60
2019-03-24T00:16:57.552Z,1.07
2019-03-24T00:19:26.047Z,2.60
2019-03-24T00:21:53.032Z,2.53
2019-03-24T00:24:19.832Z,1.03
2019-03-24T00:26:49.630Z,1.20
2019-03-24T00:29:16.415Z,2.00
2019-03-24T00:31:43.188Z,1.27
2019-03-24T00:34:09.907Z,2.33
2019-03-24T00:36:36.585Z,2.63
2019-03-24T00:39:03.501Z,2.30
2019-03-24T00:41:31.545Z,0.63
2019-03-24T00:43:58.268Z,1.27
2019-03-24T00:46:26.123Z,1.90
2019-03-24T00:48:53.257Z,1.70
2019-03-24T00:51:20.481Z,1.83
2019-03-24T00:53:47.279Z,1.63
2019-03-24T00:56:14.731Z,1.43
2019-03-24T00:58:42.344Z,2.03
2019-03-24T01:01:09.096Z,1.23
2019-03-24T01:03:35.914Z,1.40
2019-03-24T01:06:02.665Z,2.07
2019-03-24T01:08:29.570Z,1.53
2019-03-24T01:10:57.191Z,0.63
2019-03-24T01:13:24.012Z,2.20
2019-03-24T01:15:50.693Z,1.10
2019-03-24T01:18:17.405Z,1.33
2019-03-24T01:20:44.975Z,0.70
2019-03-24T01:23:11.708Z,1.37
2019-03-24T01:25:39.553Z,0.83
2019-03-24T01:28:06.504Z,1.10
2019-03-24T01:30:33.813Z,1.17
2019-03-24T01:33:01.042Z,1.63
2019-03-24T01:35:28.033Z,1.23
2019-03-24T01:37:54.744Z,0.83
2019-03-24T01:40:22.520Z,1.43
2019-03-24T01:42:51.441Z,0.87
2019-03-24T01:45:18.254Z,0.57
2019-03-24T01:47:45.069Z,1.53
2019-03-24T01:50:11.874Z,0.53
2019-03-24T01:52:38.578Z,0.93
2019-03-24T01:55:06.171Z,0.80
2019-03-24T01:57:33.175Z,1.77
2019-03-24T02:00:00.661Z,0.83
2019-03-24T02:02:27.482Z,0.90
2019-03-24T02:04:54.917Z,1.00
2019-03-24T02:07:22.641Z,1.70
2019-03-24T02:09:49.482Z,1.37
2019-03-24T02:12:16.223Z,1.47
2019-03-24T02:14:43.069Z,1.67
2019-03-24T02:17:09.911Z,0.57
2019-03-24T02:19:36.758Z,0.60
2019-03-24T02:22:03.702Z,0.97
2019-03-24T02:24:30.541Z,0.93
2019-03-24T02:26:57.487Z,1.77
2019-03-24T02:29:24.223Z,1.33
2019-03-24T02:31:51.274Z,1.23
2019-03-24T02:34:18.303Z,1.20
2019-03-24T02:36:45.071Z,1.90
2019-03-24T02:39:11.908Z,0.77
2019-03-24T02:41:38.645Z,0.60
2019-03-24T02:44:06.822Z,1.17
2019-03-24T02:46:33.692Z,1.17
2019-03-24T02:49:01.353Z,1.90
2019-03-24T02:51:28.170Z,0.67
2019-03-24T02:53:55.449Z,1.30
2019-03-24T02:56:22.264Z,0.67
2019-03-24T02:58:49.314Z,0.80
2019-03-24T03:01:16.259Z,0.63
2019-03-24T03:03:42.999Z,0.70
2019-03-24T03:06:09.737Z,0.77
2019-03-24T03:08:36.686Z,2.40
2019-03-24T03:11:03.427Z,0.90
2019-03-24T03:13:30.169Z,1.03
2019-03-24T03:15:57.011Z,2.40
2019-03-24T03:18:23.724Z,1.17
2019-03-24T03:20:51.312Z,0.60
2019-03-24T03:23:19.688Z,0.60
2019-03-24T03:25:46.529Z,1.50
2019-03-24T03:28:13.477Z,1.07
2019-03-24T03:30:40.318Z,1.30
2019-03-24T03:33:07.265Z,0.87
2019-03-24T03:35:34.141Z,1.10
2019-03-24T03:38:00.950Z,1.10
2019-03-24T03:40:27.690Z,0.40
2019-03-24T03:42:54.636Z,0.50
2019-03-24T03:45:25.169Z,2.03
2019-03-24T03:47:52.826Z,1.40
2019-03-24T03:50:19.670Z,1.83
2019-03-24T03:52:46.512Z,1.93
2019-03-24T03:55:13.463Z,1.47
2019-03-24T03:57:40.299Z,1.70
2019-03-24T04:00:07.149Z,0.40
2019-03-24T04:02:34.055Z,1.20
2019-03-24T04:05:01.035Z,2.00
2019-03-24T04:07:27.775Z,1.93
2019-03-24T04:09:54.825Z,1.13
2019-03-24T04:12:21.871Z,1.53
2019-03-24T04:14:48.715Z,1.83
2019-03-24T04:17:15.556Z,1.63
2019-03-24T04:19:42.295Z,0.63
2019-03-24T04:22:09.041Z,0.87
2019-03-24T04:24:35.879Z,1.73
2019-03-24T04:27:02.724Z,1.70
2019-03-24T04:29:29.567Z,1.10
2019-03-24T04:31:56.410Z,2.03
2019-03-24T04:34:23.257Z,1.43
2019-03-24T04:36:50.093Z,1.37
2019-03-24T04:39:16.939Z,1.00
2019-03-24T04:41:43.783Z,1.23
2019-03-24T04:44:10.625Z,2.27
2019-03-24T04:46:37.452Z,2.00
2019-03-24T04:49:04.206Z,1.07
2019-03-24T04:51:31.051Z,2.93
2019-03-24T04:53:57.892Z,2.47
2019-03-24T04:56:24.605Z,4.43
2019-03-24T04:58:51.473Z,1.23
2019-03-24T05:01:18.217Z,1.10
2019-03-24T05:03:45.057Z,0.87
2019-03-24T05:06:12.008Z,2.53
2019-03-24T05:08:38.846Z,2.30
2019-03-24T05:11:05.901Z,0.90
2019-03-24T05:13:32.634Z,2.10
2019-03-24T05:15:59.376Z,2.77
2019-03-24T05:18:26.934Z,1.47
2019-03-24T05:20:53.778Z,0.50
2019-03-24T05:23:20.628Z,2.43
2019-03-24T05:25:47.461Z,1.17
2019-03-24T05:28:14.206Z,1.00
2019-03-24T05:30:41.050Z,1.40
2019-03-24T05:33:07.893Z,3.30
2019-03-24T05:35:34.737Z,1.30
2019-03-24T05:38:01.475Z,2.93
2019-03-24T05:40:28.315Z,1.23
2019-03-24T05:42:55.058Z,2.77
2019-03-24T05:45:21.798Z,1.37
2019-03-24T05:47:49.448Z,4.17
2019-03-24T05:50:16.201Z,2.50
2019-03-24T05:52:42.943Z,1.10
2019-03-24T05:55:09.786Z,1.30
2019-03-24T05:57:36.528Z,2.17
2019-03-24T06:00:06.235Z,1.33
2019-03-24T06:02:33.076Z,1.00
2019-03-24T06:04:59.817Z,1.83
2019-03-24T06:07:26.557Z,1.60
2019-03-24T06:09:53.385Z,2.80
2019-03-24T06:12:20.347Z,0.60
2019-03-24T06:14:47.086Z,3.07
2019-03-24T06:17:13.936Z,0.90
2019-03-24T06:19:40.775Z,1.57
2019-03-24T06:22:07.513Z,2.40
2019-03-24T06:24:34.253Z,1.97
2019-03-24T06:27:00.996Z,1.50
2019-03-24T06:29:27.837Z,1.40
2019-03-24T06:31:54.784Z,2.50
2019-03-24T06:34:22.551Z,1.07
2019-03-24T06:36:49.391Z,2.07
2019-03-24T06:39:16.134Z,1.60
2019-03-24T06:41:42.871Z,0.93
2019-03-24T06:44:09.700Z,1.70
2019-03-24T06:46:37.989Z,1.43
2019-03-24T06:49:04.835Z,1.67
2019-03-24T06:51:31.783Z,0.80
2019-03-24T06:53:58.524Z,2.27
2019-03-24T06:56:25.364Z,1.37
2019-03-24T06:58:52.207Z,0.73
2019-03-24T07:01:19.152Z,1.60
2019-03-24T07:03:45.996Z,2.20
2019-03-24T07:06:12.691Z,2.37
2019-03-24T07:08:39.474Z,2.37
2019-03-24T07:11:12.364Z,1.43
2019-03-24T07:13:33.367Z,0.93
2019-03-24T07:16:00.105Z,1.97
2019-03-24T07:18:27.053Z,1.30
2019-03-24T07:20:53.794Z,2.20
2019-03-24T07:23:20.738Z,0.77
2019-03-24T07:25:47.649Z,1.67
2019-03-24T07:28:14.371Z,1.57
2019-03-24T07:30:41.081Z,1.20
2019-03-24T07:33:07.872Z,0.93
2019-03-24T07:35:34.753Z,1.53
2019-03-24T07:38:01.590Z,1.03
2019-03-24T07:40:28.535Z,0.83
2019-03-24T07:42:55.275Z,1.33
2019-03-24T07:45:22.117Z,1.10
2019-03-24T07:47:49.162Z,0.60
2019-03-24T07:50:16.728Z,1.40
2019-03-24T07:52:43.439Z,0.80
2019-03-24T07:55:10.295Z,1.37
2019-03-24T07:57:37.151Z,1.33
2019-03-24T08:00:03.995Z,1.23
2019-03-24T08:02:30.836Z,1.07
2019-03-24T08:04:58.401Z,1.20
2019-03-24T08:07:25.135Z,0.80
2019-03-24T08:09:51.843Z,0.93
2019-03-24T08:12:19.776Z,1.10
2019-03-24T08:14:47.271Z,1.00
2019-03-24T08:17:14.809Z,1.00
2019-03-24T08:19:42.235Z,0.57
2019-03-24T08:22:09.165Z,0.77
2019-03-24T08:24:36.221Z,1.47
2019-03-24T08:27:04.299Z,0.83
2019-03-24T08:29:31.824Z,1.17
2019-03-24T08:32:00.683Z,0.73
2019-03-24T08:34:27.440Z,1.73
2019-03-24T08:36:54.272Z,1.27
2019-03-24T08:39:21.058Z,1.10
2019-03-24T08:41:47.908Z,0.80
2019-03-24T08:44:15.456Z,2.20
2019-03-24T08:46:45.005Z,1.10
2019-03-24T08:49:08.970Z,0.53
2019-03-24T08:51:35.784Z,1.23
2019-03-24T08:54:02.527Z,1.40
2019-03-24T08:56:29.373Z,0.90
2019-03-24T08:58:56.091Z,1.20
2019-03-24T09:01:22.773Z,0.80
2019-03-24T09:03:49.798Z,1.37
2019-03-24T09:06:16.747Z,1.13
2019-03-24T09:08:43.499Z,2.30
2019-03-24T09:11:10.286Z,1.67
2019-03-24T09:13:37.065Z,0.73
2019-03-24T09:16:03.908Z,0.75
2019-03-24T09:18:31.155Z,1.30
2019-03-24T09:20:58.046Z,1.58
2019-03-24T09:23:25.530Z,0.90
2019-03-24T09:25:52.293Z,1.40
2019-03-24T09:28:18.971Z,1.70
2019-03-24T09:30:46.503Z,1.17
2019-03-24T09:33:13.206Z,0.80
2019-03-24T09:35:40.206Z,1.10
2019-03-24T09:38:07.002Z,0.90
2019-03-24T09:40:33.835Z,0.90
2019-03-24T09:43:00.567Z,1.33
2019-03-24T09:45:28.055Z,1.80
2019-03-24T09:47:55.836Z,1.23
2019-03-24T09:50:23.728Z,1.43
2019-03-24T09:52:50.498Z,1.03
2019-03-24T09:55:17.919Z,1.83
2019-03-24T09:57:46.267Z,2.23
2019-03-24T10:00:12.998Z,1.67
2019-03-24T10:02:39.725Z,1.20
2019-03-24T10:05:06.541Z,2.00
2019-03-24T10:07:33.986Z,1.13
2019-03-24T10:10:00.714Z,1.33
2019-03-24T10:12:27.644Z,1.93
2019-03-24T10:14:54.489Z,1.90
2019-03-24T10:17:21.983Z,2.30
2019-03-24T10:19:48.710Z,2.17
2019-03-24T10:22:15.416Z,1.87
2019-03-24T10:24:42.153Z,2.63
2019-03-24T10:27:09.116Z,2.73
2019-03-24T10:29:35.815Z,1.97
2019-03-24T10:32:02.559Z,2.53
2019-03-24T10:34:29.362Z,1.33
2019-03-24T10:36:56.067Z,1.43
2019-03-24T10:39:22.773Z,1.20
2019-03-24T10:41:49.553Z,2.50
2019-03-24T10:44:16.500Z,1.30
2019-03-24T10:46:43.184Z,1.40
2019-03-24T10:49:10.661Z,2.30
2019-03-24T10:51:37.391Z,1.30
2019-03-24T10:54:04.281Z,1.57
2019-03-24T10:56:31.006Z,2.53
2019-03-24T10:58:57.764Z,3.17
2019-03-24T11:01:24.502Z,2.70
2019-03-24T11:03:51.253Z,3.40
2019-03-24T11:06:18.752Z,3.37
2019-03-24T11:08:46.243Z,2.43
2019-03-24T11:11:12.996Z,1.80
2019-03-24T11:13:39.683Z,2.50
2019-03-24T11:16:07.482Z,1.83
2019-03-24T11:18:34.352Z,1.27
2019-03-24T11:21:01.028Z,1.57
2019-03-24T11:23:27.745Z,3.03
2019-03-24T11:25:54.571Z,1.30
2019-03-24T11:28:21.288Z,2.43
2019-03-24T11:30:48.142Z,3.40
2019-03-24T11:33:14.905Z,2.17
2019-03-24T11:35:41.850Z,2.07
2019-03-24T11:38:08.666Z,2.37
2019-03-24T11:40:35.732Z,3.37
2019-03-24T11:43:02.576Z,1.00
2019-03-24T11:45:31.482Z,0.93
2019-03-24T11:47:58.181Z,1.33
2019-03-24T11:50:24.990Z,1.73
2019-03-24T11:52:52.455Z,1.57
2019-03-24T11:55:19.231Z,2.23
2019-03-24T11:57:45.942Z,1.23
2019-03-24T12:00:13.406Z,1.23
2019-03-24T12:02:40.283Z,1.77
2019-03-24T12:05:07.006Z,1.80
2019-03-24T12:07:33.764Z,2.00
2019-03-24T12:10:00.632Z,1.33
2019-03-24T12:12:27.312Z,2.50
2019-03-24T12:14:53.996Z,3.13
2019-03-24T12:17:20.935Z,2.13
2019-03-24T12:19:56.432Z,2.83
2019-03-24T12:22:15.235Z,3.00
2019-03-24T12:24:42.180Z,3.10
2019-03-24T12:27:09.022Z,1.90
2019-03-24T12:29:35.781Z,1.53
2019-03-24T12:32:02.518Z,4.80
2019-03-24T12:34:29.257Z,1.40
2019-03-24T12:36:56.002Z,2.23
2019-03-24T12:39:22.725Z,3.23
2019-03-24T12:41:49.478Z,1.10
2019-03-24T12:44:16.309Z,2.67
2019-03-24T12:46:43.006Z,2.70
2019-03-24T12:49:10.462Z,4.00
2019-03-24T12:51:37.988Z,5.97
2019-03-24T12:54:04.749Z,2.03
2019-03-24T12:56:31.530Z,1.80
2019-03-24T12:58:58.394Z,2.00
2019-03-24T13:01:25.133Z,2.57
2019-03-24T13:03:51.905Z,3.30
2019-03-24T13:06:18.712Z,1.90
2019-03-24T13:08:45.557Z,3.03
2019-03-24T13:11:12.394Z,2.50
2019-03-24T13:13:39.100Z,1.83
2019-03-24T13:16:05.928Z,2.20
2019-03-24T13:18:33.424Z,5.67
2019-03-24T13:21:00.131Z,3.60
2019-03-24T13:23:26.822Z,3.90
2019-03-24T13:25:53.608Z,3.23
2019-03-24T13:28:20.507Z,4.23
2019-03-24T13:30:47.211Z,2.17
2019-03-24T13:33:14.399Z,2.77
2019-03-24T13:35:41.257Z,2.50
2019-03-24T13:38:08.740Z,2.87
2019-03-24T13:40:36.246Z,1.83
2019-03-24T13:43:02.994Z,1.93
2019-03-24T13:45:29.847Z,3.13
2019-03-24T13:47:56.682Z,2.87
2019-03-24T13:50:31.364Z,3.87
2019-03-24T13:52:50.208Z,3.60
2019-03-24T13:55:17.740Z,4.00
2019-03-24T13:57:44.535Z,4.43
2019-03-24T14:00:11.508Z,2.63
2019-03-24T14:02:38.353Z,2.73
2019-03-24T14:05:10.516Z,2.93
2019-03-24T14:07:37.429Z,2.53
2019-03-24T14:10:05.025Z,3.87
2019-03-24T14:12:31.866Z,2.93
2019-03-24T14:14:58.568Z,4.07
2019-03-24T14:17:25.329Z,3.70
2019-03-24T14:19:52.100Z,5.30
2019-03-24T14:22:18.786Z,3.77
2019-03-24T14:24:45.574Z,5.60
2019-03-24T14:27:12.414Z,4.33
2019-03-24T14:29:39.090Z,5.43
2019-03-24T14:32:06.613Z,7.80
2019-03-24T14:34:33.400Z,5.07
2019-03-24T14:37:00.113Z,3.20
2019-03-24T14:39:26.890Z,3.77
2019-03-24T14:41:53.593Z,2.10
2019-03-24T14:44:20.313Z,2.47
2019-03-24T14:46:47.068Z,4.07
2019-03-24T14:49:14.541Z,5.27
2019-03-24T14:51:41.462Z,4.30
2019-03-24T14:54:08.301Z,2.60
2019-03-24T14:56:35.038Z,5.97
2019-03-24T14:59:02.606Z,3.40
2019-03-24T15:01:29.389Z,3.50
2019-03-24T15:03:57.005Z,2.50
2019-03-24T15:06:23.715Z,3.03
2019-03-24T15:08:50.462Z,5.73
2019-03-24T15:11:17.226Z,2.97
2019-03-24T15:13:43.938Z,5.97
2019-03-24T15:16:10.706Z,5.27
2019-03-24T15:18:37.402Z,2.50
2019-03-24T15:21:05.836Z,3.30
2019-03-24T15:23:31.188Z,2.50
2019-03-24T15:25:58.647Z,6.97
2019-03-24T15:28:26.149Z,2.87
2019-03-24T15:30:52.968Z,7.03
2019-03-24T15:33:19.687Z,3.87
2019-03-24T15:35:47.169Z,2.23
2019-03-24T15:38:13.940Z,1.70
2019-03-24T15:40:40.677Z,3.43
2019-03-24T15:43:07.381Z,2.83
2019-03-24T15:45:34.181Z,4.37
2019-03-24T15:48:00.892Z,2.27
2019-03-24T15:50:28.097Z,2.60
2019-03-24T15:52:54.961Z,3.03
2019-03-24T15:55:22.940Z,3.37
2019-03-24T15:57:49.693Z,2.87
2019-03-24T16:00:17.260Z,2.63
2019-03-24T16:02:44.032Z,3.10
2019-03-24T16:05:11.512Z,3.67
2019-03-24T16:07:39.013Z,6.00
2019-03-24T16:10:05.768Z,2.10
2019-03-24T16:12:33.778Z,3.23
2019-03-24T16:15:00.881Z,2.87
2019-03-24T16:17:27.829Z,3.47
2019-03-24T16:19:54.621Z,1.80
2019-03-24T16:22:22.737Z,2.20
2019-03-24T16:24:49.432Z,3.77
2019-03-24T16:27:16.887Z,2.33
2019-03-24T16:29:43.736Z,2.97
2019-03-24T16:32:11.441Z,2.47
2019-03-24T16:34:38.182Z,4.10
2019-03-24T16:37:04.872Z,1.90
2019-03-24T16:39:31.652Z,1.37
2019-03-24T16:41:58.506Z,4.30
2019-03-24T16:44:25.233Z,1.60
2019-03-24T16:46:52.092Z,2.23
2019-03-24T16:49:18.797Z,2.80
2019-03-24T16:51:46.281Z,2.17
2019-03-24T16:54:13.118Z,2.47
2019-03-24T16:56:39.870Z,2.37
2019-03-24T16:59:06.715Z,6.27
2019-03-24T17:01:33.862Z,3.37
2019-03-24T17:04:00.738Z,1.73
2019-03-24T17:06:29.084Z,2.73
2019-03-24T17:08:56.130Z,4.80
2019-03-24T17:11:22.847Z,2.17
2019-03-24T17:13:49.598Z,2.03
2019-03-24T17:16:16.557Z,3.47
2019-03-24T17:18:43.810Z,2.77
2019-03-24T17:21:11.474Z,2.83
2019-03-24T17:23:39.026Z,2.73
2019-03-24T17:26:05.981Z,5.27
2019-03-24T17:28:32.717Z,2.70
2019-03-24T17:30:59.585Z,3.23
2019-03-24T17:33:27.835Z,1.63
2019-03-24T17:35:55.501Z,3.23
2019-03-24T17:38:22.348Z,2.97
2019-03-24T17:40:49.184Z,3.77
2019-03-24T17:43:15.925Z,2.50
2019-03-24T17:45:42.635Z,4.40
2019-03-24T17:48:09.555Z,2.87
2019-03-24T17:50:36.554Z,3.97
2019-03-24T17:53:06.661Z,3.27
2019-03-24T17:55:31.723Z,2.37
2019-03-24T17:57:59.191Z,3.93
2019-03-24T18:00:41.852Z,4.27
2019-03-24T18:03:08.579Z,6.33
2019-03-24T18:05:35.535Z,5.50
2019-03-24T18:08:02.383Z,2.43
2019-03-24T18:10:29.325Z,2.67
2019-03-24T18:12:56.133Z,5.30
2019-03-24T18:15:22.915Z,3.90
2019-03-24T18:17:50.274Z,3.27
2019-03-24T18:20:32.008Z,5.17
2019-03-24T18:22:59.309Z,2.73
2019-03-24T18:25:26.049Z,4.03
2019-03-24T18:27:54.215Z,1.73
2019-03-24T18:30:22.176Z,5.87
2019-03-24T18:32:56.035Z,4.43
2019-03-24T18:35:22.880Z,6.40
2019-03-24T18:37:49.640Z,4.60
2019-03-24T18:40:17.941Z,2.87
2019-03-24T18:42:44.760Z,5.87
2019-03-24T18:45:12.261Z,3.93
2019-03-24T18:47:39.416Z,4.17
2019-03-24T18:50:07.172Z,4.00
2019-03-24T18:52:33.943Z,4.10
2019-03-24T18:55:00.644Z,2.47
2019-03-24T18:57:27.730Z,4.00
2019-03-24T18:59:56.936Z,4.67
2019-03-24T19:02:23.693Z,3.57
2019-03-24T19:04:51.216Z,5.13
2019-03-24T19:07:17.961Z,3.20
2019-03-24T19:09:44.669Z,4.57
2019-03-24T19:12:11.380Z,4.33
2019-03-24T19:14:40.093Z,4.67
2019-03-24T19:17:04.914Z,3.57
2019-03-24T19:19:31.651Z,4.67
2019-03-24T19:22:01.209Z,2.13
2019-03-24T19:24:27.977Z,5.17
2019-03-24T19:26:54.671Z,3.97
2019-03-24T19:29:22.212Z,3.30
2019-03-24T19:31:49.676Z,4.07
2019-03-24T19:34:16.389Z,6.50
2019-03-24T19:36:43.173Z,3.53
2019-03-24T19:39:09.935Z,6.23
2019-03-24T19:41:36.632Z,4.90
2019-03-24T19:44:03.458Z,4.63
2019-03-24T19:46:30.181Z,6.53
2019-03-24T19:48:56.911Z,7.30
2019-03-24T19:51:23.694Z,3.77
2019-03-24T19:53:50.411Z,3.07
2019-03-24T19:56:17.127Z,4.20
2019-03-24T19:58:43.909Z,4.27
2019-03-24T20:01:10.609Z,6.57
2019-03-24T20:03:37.376Z,3.97
2019-03-24T20:06:04.939Z,4.93
2019-03-24T20:08:31.603Z,4.50
2019-03-24T20:10:58.304Z,4.70
2019-03-24T20:13:25.098Z,5.63
2019-03-24T20:15:52.620Z,4.67
2019-03-24T20:18:19.379Z,5.30
2019-03-24T20:20:46.100Z,6.13
2019-03-24T20:23:12.848Z,5.20
2019-03-24T20:25:39.616Z,6.77
2019-03-24T20:28:06.324Z,5.27
2019-03-24T20:30:33.825Z,5.63
2019-03-24T20:33:01.283Z,7.57
2019-03-24T20:35:28.019Z,3.40
2019-03-24T20:37:55.637Z,4.30
2019-03-24T20:40:22.350Z,6.27
2019-03-24T20:42:49.136Z,3.20
2019-03-24T20:45:15.886Z,7.37
2019-03-24T20:47:42.607Z,9.53
2019-03-24T20:50:09.694Z,6.93
2019-03-24T20:52:37.109Z,3.70
2019-03-24T20:55:05.287Z,5.30
2019-03-24T20:57:32.513Z,5.23
2019-03-24T21:00:01.220Z,11.20
2019-03-24T21:02:28.174Z,3.53
2019-03-24T21:04:55.053Z,3.83
2019-03-24T21:07:22.499Z,9.53
2019-03-24T21:09:49.546Z,4.40
2019-03-24T21:12:17.977Z,5.87
2019-03-24T21:14:45.753Z,6.53
2019-03-24T21:17:13.344Z,2.40
2019-03-24T21:19:42.346Z,8.00
2019-03-24T21:22:13.965Z,5.27
2019-03-24T21:24:42.132Z,6.87
2019-03-24T21:27:08.887Z,5.50
2019-03-24T21:29:38.641Z,3.77
2019-03-24T21:32:06.322Z,6.13
2019-03-24T21:34:33.099Z,4.40
2019-03-24T21:36:59.936Z,5.10
2019-03-24T21:39:26.983Z,6.03
2019-03-24T21:41:53.933Z,4.80
2019-03-24T21:44:20.779Z,5.97
2019-03-24T21:46:47.847Z,6.50
2019-03-24T21:49:14.763Z,6.97
2019-03-24T21:51:41.612Z,7.07
2019-03-24T21:54:08.413Z,6.50
2019-03-24T21:56:35.299Z,5.27
2019-03-24T21:59:02.138Z,7.43
2019-03-24T22:01:29.089Z,3.37
2019-03-24T22:03:55.820Z,7.87
2019-03-24T22:06:22.773Z,5.73
2019-03-24T22:08:49.538Z,6.07
2019-03-24T22:11:16.982Z,9.37
2019-03-24T22:13:43.913Z,10.80
2019-03-24T22:16:10.857Z,7.63
2019-03-24T22:18:37.596Z,6.50
2019-03-24T22:21:05.160Z,4.73
2019-03-24T22:23:32.206Z,8.13
2019-03-24T22:25:59.054Z,5.83
2019-03-24T22:28:26.711Z,7.00
2019-03-24T22:30:53.455Z,6.63
2019-03-24T22:33:20.395Z,7.27
2019-03-24T22:35:47.345Z,5.33
2019-03-24T22:38:14.080Z,10.33
2019-03-24T22:40:40.826Z,7.93
2019-03-24T22:43:08.586Z,7.93
2019-03-24T22:45:38.811Z,9.30
2019-03-24T22:48:05.965Z,6.53
2019-03-24T22:50:32.744Z,5.27
2019-03-24T22:53:00.234Z,5.83
2019-03-24T22:55:26.945Z,5.73
2019-03-24T22:57:54.453Z,5.17
2019-03-24T23:00:21.300Z,5.43
2019-03-24T23:02:49.025Z,10.53
2019-03-24T23:05:15.816Z,8.47
2019-03-24T23:07:42.503Z,7.60
2019-03-24T23:10:09.998Z,5.67
2019-03-24T23:12:36.954Z,4.13
2019-03-24T23:15:03.780Z,4.50
2019-03-24T23:17:30.473Z,3.57
2019-03-24T23:19:57.308Z,7.10
2019-03-24T23:22:24.096Z,6.13
2019-03-24T23:24:50.825Z,5.60
2019-03-24T23:27:17.593Z,7.17
2019-03-24T23:29:44.307Z,5.77
2019-03-24T23:32:11.190Z,5.50
2019-03-24T23:34:38.007Z,8.50
2019-03-24T23:37:06.224Z,4.87
2019-03-24T23:39:33.190Z,3.93
2019-03-24T23:42:00.737Z,7.13
2019-03-24T23:44:27.570Z,3.60
2019-03-24T23:46:54.512Z,4.93
2019-03-24T23:49:21.592Z,5.77
2019-03-24T23:51:49.018Z,5.00
2019-03-24T23:54:26.561Z,7.80
2019-03-24T23:56:43.574Z,7.27
2019-03-24T23:59:10.377Z,10.37
